Time;durP1;ratioP1;P1;durP2;ratioP2;P2;SDS_P1;SDS_P2;PMS_P1;PMS_P2;Temp;Humidity;BMP_temperature;BMP_pressure;BME280_temperature;BME280_humidity;BME280_pressure;Samples;Min_cycle;Max_cycle;Signal;HPM_P1;HPM_P2
2021/04/11 00:00:46;;;;;;;22.02;13.10;;;;;;;3.10;75.39;96332.75;6348322;22;20002;-88
2021/04/11 00:03:19;;;;;;;26.25;12.55;;;;;;;3.23;73.89;96314.88;6348270;22;20014;-88
2021/04/11 00:05:45;;;;;;;20.15;12.23;;;;;;;2.98;72.68;96285.75;6348166;22;20350;-87
2021/04/11 00:08:12;;;;;;;24.08;12.93;;;;;;;3.27;72.30;96355.84;6375795;22;20002;-87
2021/04/11 00:10:40;;;;;;;21.15;13.55;;;;;;;3.22;73.38;96342.13;6376152;22;19998;-87
2021/04/11 00:13:23;;;;;;;19.00;12.93;;;;;;;3.15;73.52;96338.41;6348138;22;20005;-87
2021/04/11 00:15:49;;;;;;;21.48;13.32;;;;;;;2.60;73.19;96279.88;6348126;22;20096;-87
2021/04/11 00:18:16;;;;;;;20.27;12.45;;;;;;;2.49;74.26;96263.94;6347760;22;20022;-87
2021/04/11 00:20:41;;;;;;;21.70;12.95;;;;;;;2.67;73.20;96287.81;6348228;22;19995;-87
2021/04/11 00:23:07;;;;;;;21.65;13.25;;;;;;;2.96;73.25;96344.47;6348058;22;20093;-87
2021/04/11 00:25:35;;;;;;;17.05;12.32;;;;;;;2.54;75.74;96282.25;6348168;22;20059;-87
2021/04/11 00:28:01;;;;;;;22.85;13.68;;;;;;;2.82;75.32;96299.84;6347987;22;20002;-87
2021/04/11 00:30:27;;;;;;;26.40;13.95;;;;;;;2.74;73.85;96286.94;6347994;22;20009;-87
2021/04/11 00:32:54;;;;;;;28.65;14.32;;;;;;;2.69;74.96;96274.75;6347931;22;20006;-87
2021/04/11 00:35:21;;;;;;;19.77;12.80;;;;;;;3.12;74.02;96339.22;6347559;22;20051;-86
2021/04/11 00:37:46;;;;;;;23.05;13.50;;;;;;;2.58;73.52;96272.22;6348029;22;20002;-87
2021/04/11 00:40:35;;;;;;;21.65;14.32;;;;;;;2.81;74.15;96329.75;6375524;22;20030;-87
2021/04/11 00:43:08;;;;;;;19.27;13.48;;;;;;;2.63;73.41;96317.38;6375256;22;20002;-87
2021/04/11 00:45:57;;;;;;;20.95;13.07;;;;;;;2.77;74.98;96334.41;6347989;22;20006;-87
2021/04/11 00:48:26;;;;;;;25.83;14.25;;;;;;;2.59;74.39;96321.25;6374290;22;20007;-87
2021/04/11 00:50:54;;;;;;;29.00;13.70;;;;;;;2.55;76.25;96302.53;6347651;22;20398;-87
2021/04/11 00:53:21;;;;;;;22.55;13.52;;;;;;;2.91;76.02;96346.84;6375312;22;19998;-87
2021/04/11 00:55:47;;;;;;;65.68;21.75;;;;;;;2.23;75.24;96257.41;6376047;22;20069;-87
2021/04/11 00:58:13;;;;;;;29.05;16.05;;;;;;;2.61;75.60;96308.97;6347601;22;20012;-86
2021/04/11 01:00:38;;;;;;;25.55;15.75;;;;;;;2.53;73.40;96307.56;6375279;22;20073;-87
2021/04/11 01:03:06;;;;;;;22.15;13.77;;;;;;;2.01;73.55;96258.88;6375236;22;19998;-87
2021/04/11 01:05:35;;;;;;;23.73;13.68;;;;;;;2.25;74.68;96316.75;6347785;22;20054;-87
2021/04/11 01:08:10;;;;;;;20.05;13.32;;;;;;;2.62;75.95;96360.69;6348129;22;20270;-86
2021/04/11 01:10:40;;;;;;;18.20;11.98;;;;;;;2.37;73.91;96302.03;6347933;22;20052;-88
2021/04/11 01:13:06;;;;;;;19.98;12.90;;;;;;;2.08;74.69;96290.97;6347742;22;20006;-87
2021/04/11 01:15:34;;;;;;;18.58;12.73;;;;;;;2.54;75.57;96348.53;6347755;22;20059;-88
2021/04/11 01:18:00;;;;;;;22.38;12.80;;;;;;;2.57;76.67;96350.41;6347371;22;20002;-87
2021/04/11 01:20:26;;;;;;;20.52;12.27;;;;;;;2.78;75.75;96341.31;6347517;22;20358;-87
2021/04/11 01:23:12;;;;;;;24.38;11.65;;;;;;;1.92;74.82;96264.75;6375112;22;20384;-87
2021/04/11 01:25:40;;;;;;;18.48;12.23;;;;;;;1.93;76.58;96270.88;6347612;22;20051;-87
2021/04/11 01:28:14;;;;;;;19.95;11.43;;;;;;;1.95;76.05;96269.28;6347702;22;20086;-87
2021/04/11 01:30:42;;;;;;;16.30;11.50;;;;;;;1.82;75.96;96285.16;6347742;22;20435;-87
2021/04/11 01:33:17;;;;;;;142.27;75.53;;;;;;;2.34;76.73;96341.16;6347601;22;20003;-87
2021/04/11 01:35:44;;;;;;;38.35;21.85;;;;;;;1.99;75.19;96269.25;6347405;22;20013;-87
2021/04/11 01:38:11;;;;;;;28.35;16.02;;;;;;;2.27;74.82;96340.47;6347772;22;20310;-87
2021/04/11 01:41:21;;;;;;;22.15;14.60;;;;;;;2.28;76.19;96340.06;6347336;22;20063;-87
2021/04/11 01:43:48;;;;;;;23.30;14.07;;;;;;;2.16;76.08;96337.94;6321655;22;20414;-87
2021/04/11 01:46:15;;;;;;;23.83;13.40;;;;;;;1.73;76.57;96263.44;6347545;22;20014;-87
2021/04/11 01:48:44;;;;;;;21.35;13.27;;;;;;;2.11;76.16;96338.38;6375688;22;20346;-87
2021/04/11 01:51:12;;;;;;;22.63;12.27;;;;;;;2.23;77.39;96329.78;6347179;22;20018;-87
2021/04/11 01:53:38;;;;;;;20.23;12.65;;;;;;;1.68;76.94;96269.25;6347574;22;20430;-87
2021/04/11 01:56:06;;;;;;;18.38;10.98;;;;;;;1.55;76.67;96257.56;6347434;22;20006;-87
2021/04/11 01:58:34;;;;;;;19.63;11.45;;;;;;;1.37;77.64;96254.31;6347255;22;20010;-87
2021/04/11 02:01:21;;;;;;;18.60;10.80;;;;;;;2.08;77.63;96326.56;6347240;22;20012;-87
2021/04/11 02:04:00;;;;;;;15.27;10.25;;;;;;;2.16;78.57;96329.13;6347222;22;20007;-87
2021/04/11 02:06:27;;;;;;;16.70;10.18;;;;;;;2.10;78.27;96329.56;6347465;22;20009;-86
2021/04/11 02:08:57;;;;;;;18.10;11.00;;;;;;;2.38;77.55;96337.66;6347289;22;20006;-87
2021/04/11 02:11:23;;;;;;;45.70;12.07;;;;;;;2.29;77.27;96338.91;6347368;22;20013;-87
2021/04/11 02:13:49;;;;;;;15.75;10.75;;;;;;;1.83;77.43;96267.91;6347307;22;20002;-88
2021/04/11 02:16:20;;;;;;;17.92;10.45;;;;;;;2.19;76.57;96331.78;6347374;22;20008;-87
2021/04/11 02:18:46;;;;;;;15.75;10.73;;;;;;;1.90;77.09;96287.72;6374897;22;20060;-88
2021/04/11 02:21:16;;;;;;;15.25;10.57;;;;;;;1.64;77.38;96232.97;6346899;22;20010;-87
2021/04/11 02:23:42;;;;;;;;;;;;;;;2.05;77.13;96324.66;6375358;22;20009;-88
2021/04/11 02:26:10;;;;;;;15.30;10.38;;;;;;;1.80;76.37;96300.09;6374967;22;19902;-88
2021/04/11 02:28:36;;;;;;;17.05;10.63;;;;;;;1.41;78.16;96245.09;6347563;22;20365;-88
2021/04/11 02:31:18;;;;;;;15.45;10.38;;;;;;;1.82;78.57;96285.16;6346823;22;20090;-88
2021/04/11 02:34:03;;;;;;;19.27;10.63;;;;;;;2.01;76.89;96315.16;6374973;22;20005;-87
2021/04/11 02:36:36;;;;;;;18.38;10.77;;;;;;;1.66;77.55;96273.50;6347306;22;20006;-88
2021/04/11 02:39:07;;;;;;;19.60;11.23;;;;;;;1.35;76.30;96240.56;6346717;22;20006;-88
2021/04/11 02:41:33;;;;;;;18.48;11.05;;;;;;;1.31;76.68;96260.09;6347297;22;20358;-88
2021/04/11 02:43:59;;;;;;;14.82;10.38;;;;;;;1.75;78.83;96303.22;6376645;22;19998;-88
2021/04/11 02:46:25;;;;;;;20.58;11.50;;;;;;;1.32;76.26;96250.16;6349380;22;20093;-87
2021/04/11 02:48:54;;;;;;;14.93;10.85;;;;;;;1.42;78.44;96251.94;6377000;22;20002;-88
2021/04/11 02:51:22;;;;;;;19.80;10.68;;;;;;;1.98;77.90;96305.25;6348851;22;20038;-88
2021/04/11 02:53:49;;;;;;;19.52;10.80;;;;;;;1.90;76.88;96283.13;6376848;22;20033;-88
2021/04/11 02:56:16;;;;;;;18.15;10.90;;;;;;;1.42;77.00;96235.88;6348945;22;20010;-88
2021/04/11 02:58:42;;;;;;;16.73;10.82;;;;;;;1.27;78.59;96215.78;6349163;22;20002;-88
2021/04/11 03:01:15;;;;;;;15.98;10.25;;;;;;;1.09;77.91;96237.41;6351096;22;20426;-88
2021/04/11 03:03:41;;;;;;;16.90;11.00;;;;;;;1.21;79.04;96252.19;6348878;22;20005;-88
2021/04/11 03:06:19;;;;;;;14.70;10.43;;;;;;;1.11;78.97;96207.56;6348897;22;20006;-88
2021/04/11 03:08:53;;;;;;;15.27;10.43;;;;;;;1.01;77.96;96203.84;6349454;22;20033;-88
2021/04/11 03:11:23;;;;;;;16.27;10.70;;;;;;;1.22;78.18;96256.38;6348877;22;20005;-88
2021/04/11 03:13:50;;;;;;;;;;;;;;;1.64;80.46;96300.66;6377892;22;19998;-88
2021/04/11 03:16:15;;;;;;;17.23;9.75;;;;;;;1.29;78.60;96257.06;6376455;22;19980;-88
2021/04/11 03:18:42;;;;;;;14.73;10.15;;;;;;;1.81;79.09;96307.75;6348435;22;20073;-88
2021/04/11 03:21:09;;;;;;;15.40;10.30;;;;;;;1.49;78.23;96302.75;6348854;22;20270;-88
2021/04/11 03:23:37;;;;;;;15.07;10.70;;;;;;;1.24;78.19;96238.78;6348588;22;20030;-88
2021/04/11 03:26:21;;;;;;;20.65;10.85;;;;;;;1.61;79.20;96312.19;6348624;22;20363;-88
2021/04/11 03:29:21;;;;;;;22.50;11.50;;;;;;;1.94;77.31;96301.84;6348688;22;19998;-88
2021/04/11 03:31:55;;;;;;;16.85;11.07;;;;;;;1.06;77.52;96214.09;6375983;22;19998;-88
2021/04/11 03:34:23;;;;;;;18.33;11.50;;;;;;;1.18;77.93;96259.09;6376262;22;19998;-88
2021/04/11 03:36:49;;;;;;;18.20;11.50;;;;;;;1.07;77.94;96218.31;6348789;22;20002;-89
2021/04/11 03:39:15;;;;;;;16.95;11.20;;;;;;;1.54;77.86;96298.84;6348560;22;20048;-88
2021/04/11 03:41:43;;;;;;;23.13;11.55;;;;;;;1.04;78.62;96254.63;6348155;22;20006;-88
2021/04/11 03:44:17;;;;;;;15.30;10.23;;;;;;;1.23;79.00;96269.38;6349087;22;20382;-88
2021/04/11 03:47:03;;;;;;;16.40;11.10;;;;;;;1.10;77.79;96254.97;6348616;22;20006;-88
2021/04/11 03:49:50;;;;;;;17.92;11.05;;;;;;;1.51;78.42;96305.78;6349279;22;20002;-88
2021/04/11 03:52:44;;;;;;;19.67;10.77;;;;;;;1.31;78.58;96296.81;6376191;22;20443;-88
2021/04/11 03:55:14;;;;;;;18.35;11.45;;;;;;;1.26;79.15;96291.88;6348382;22;19994;-89
2021/04/11 03:57:51;;;;;;;15.77;11.27;;;;;;;0.84;77.80;96259.03;6348436;22;20006;-89
2021/04/11 04:00:23;;;;;;;15.52;10.55;;;;;;;1.10;79.18;96305.81;6348588;22;20060;-89
2021/04/11 04:02:49;;;;;;;19.98;10.65;;;;;;;0.74;78.48;96265.97;6375950;22;20050;-88
2021/04/11 04:05:21;;;;;;;16.58;10.25;;;;;;;1.08;80.33;96299.34;6348206;22;20248;-89
2021/04/11 04:07:53;;;;;;;16.48;10.98;;;;;;;0.94;80.02;96276.13;6348570;22;20010;-89
2021/04/11 04:10:22;;;;;;;17.92;11.23;;;;;;;0.58;79.99;96216.84;6347930;22;20267;-89
2021/04/11 04:13:14;;;;;;;15.05;11.20;;;;;;;0.87;79.16;96270.88;6348218;22;20013;-88
2021/04/11 04:15:44;;;;;;;17.67;10.88;;;;;;;1.51;77.47;96307.69;6348438;22;20044;-88
2021/04/11 04:18:19;;;;;;;18.10;10.88;;;;;;;1.24;78.65;96303.00;6375889;22;19998;-89
2021/04/11 04:21:08;;;;;;;19.85;11.07;;;;;;;1.19;77.89;96302.66;6348421;22;20004;-88
2021/04/11 04:23:48;;;;;;;16.80;10.38;;;;;;;0.83;78.18;96268.22;6348070;22;20010;-89
2021/04/11 04:26:32;;;;;;;23.83;11.40;;;;;;;1.10;78.59;96297.78;6348285;22;20002;-88
2021/04/11 04:29:31;;;;;;;19.02;11.43;;;;;;;1.15;78.99;96307.28;6376557;22;20004;-89
2021/04/11 04:32:18;;;;;;;20.75;11.38;;;;;;;1.15;79.65;96293.91;6375691;22;20314;-89
2021/04/11 04:34:49;;;;;;;18.88;10.90;;;;;;;1.10;78.85;96305.03;6348184;22;20007;-89
2021/04/11 04:37:29;;;;;;;18.70;10.65;;;;;;;1.09;80.28;96296.25;6375618;22;20022;-89
2021/04/11 04:40:01;;;;;;;17.53;10.80;;;;;;;0.92;77.97;96295.25;6348182;22;20006;-89
2021/04/11 04:42:52;;;;;;;16.75;9.82;;;;;;;1.00;79.48;96285.25;6375502;22;20076;-89
2021/04/11 04:45:36;;;;;;;16.90;9.90;;;;;;;1.03;79.42;96306.63;6358378;22;20038;-89
2021/04/11 04:48:08;;;;;;;16.35;11.07;;;;;;;0.92;80.26;96257.81;6348091;22;20002;-89
2021/04/11 04:50:39;;;;;;;15.68;10.70;;;;;;;1.17;78.94;96307.66;6348110;22;20020;-89
2021/04/11 04:53:23;;;;;;;17.52;11.02;;;;;;;1.30;80.54;96309.44;6348256;22;20085;-88
2021/04/11 04:55:52;;;;;;;15.88;10.77;;;;;;;1.13;80.08;96272.91;6347984;22;20002;-89
2021/04/11 04:58:25;;;;;;;21.75;12.38;;;;;;;1.33;80.27;96269.63;6347999;22;20088;-89
2021/04/11 05:00:55;;;;;;;22.25;13.40;;;;;;;1.60;79.29;96312.56;6348032;22;20037;-89
2021/04/11 05:03:26;;;;;;;41.83;24.10;;;;;;;1.18;80.12;96234.25;6347922;22;20029;-89
2021/04/11 05:06:01;;;;;;;26.42;17.73;;;;;;;1.82;80.30;96298.53;6347833;22;20010;-89
2021/04/11 05:08:35;;;;;;;22.35;14.40;;;;;;;1.52;78.46;96277.09;6347943;22;20006;-88
2021/04/11 05:11:17;;;;;;;19.17;13.32;;;;;;;1.88;79.05;96314.94;6375428;22;20003;-88
2021/04/11 05:13:51;;;;;;;14.85;11.65;;;;;;;1.73;79.05;96284.13;6347772;22;20005;-88
2021/04/11 05:16:39;;;;;;;17.25;10.77;;;;;;;2.09;78.00;96290.56;6347310;22;19998;-89
2021/04/11 05:19:19;;;;;;;19.30;10.98;;;;;;;2.14;79.15;96308.09;6347133;22;20029;-88
2021/04/11 05:21:51;;;;;;;18.57;10.60;;;;;;;2.11;79.42;96276.75;6375913;22;20009;-88
2021/04/11 05:24:28;;;;;;;20.63;11.40;;;;;;;2.00;78.58;96244.72;6376535;22;19999;-88
2021/04/11 05:26:59;;;;;;;17.05;11.25;;;;;;;2.49;77.94;96295.34;6374573;22;20034;-88
2021/04/11 05:30:01;;;;;;;16.58;10.95;;;;;;;2.66;77.47;96302.38;6347716;22;20003;-88
2021/04/11 05:32:27;;;;;;;17.25;11.15;;;;;;;2.65;78.53;96276.72;6375944;22;20294;-88
2021/04/11 05:34:54;;;;;;;18.13;11.90;;;;;;;2.68;79.49;96259.81;6375124;22;20370;-87
2021/04/11 05:37:26;;;;;;;18.83;11.50;;;;;;;3.06;78.81;96295.22;6375001;22;20069;-88
2021/04/11 05:40:03;;;;;;;19.77;11.75;;;;;;;3.17;77.92;96305.03;6374997;22;20009;-87
2021/04/11 05:43:06;;;;;;;24.17;11.52;;;;;;;3.30;77.10;96293.28;6347407;22;20002;-87
2021/04/11 05:46:00;;;;;;;21.00;12.15;;;;;;;3.45;76.59;96285.72;6375011;22;20268;-87
2021/04/11 05:48:42;;;;;;;20.17;10.77;;;;;;;3.68;76.47;96282.22;6341815;22;20006;-86
2021/04/11 05:51:14;;;;;;;18.67;10.48;;;;;;;3.56;75.83;96251.34;6347183;22;20019;-87
2021/04/11 05:54:11;;;;;;;22.95;10.52;;;;;;;3.83;76.12;96261.94;6375089;22;20005;-87
2021/04/11 05:56:43;;;;;;;18.50;10.10;;;;;;;3.99;75.17;96258.56;6336312;22;20036;-87
2021/04/11 05:59:13;;;;;;;16.83;10.63;;;;;;;4.25;76.16;96282.97;6374493;22;20003;-87
2021/04/11 06:01:41;;;;;;;18.30;9.93;;;;;;;4.15;74.73;96247.81;6375180;22;20026;-87
2021/04/11 06:04:12;;;;;;;17.90;10.38;;;;;;;4.29;74.44;96235.25;6347161;22;20520;-87
2021/04/11 06:06:43;;;;;;;;;;;;;;;4.85;73.93;96272.78;6347851;22;20382;-87
2021/04/11 06:09:38;;;;;;;17.98;9.05;;;;;;;4.59;73.26;96224.19;6374889;22;19902;-87
2021/04/11 06:12:18;;;;;;;13.27;8.07;;;;;;;5.33;71.55;96284.66;6347070;22;20144;-87
2021/04/11 06:15:13;;;;;;;17.00;8.90;;;;;;;5.56;71.16;96275.59;6374948;22;20005;-87
2021/04/11 06:17:45;;;;;;;14.52;8.23;;;;;;;5.75;70.78;96277.34;6346905;22;20013;-86
2021/04/11 06:20:11;;;;;;;14.30;7.57;;;;;;;5.74;70.15;96254.28;6349096;22;20370;-86
2021/04/11 06:22:47;;;;;;;10.38;7.20;;;;;;;5.82;70.11;96227.91;6348981;22;20006;-86
2021/04/11 06:25:29;;;;;;;11.57;7.65;;;;;;;6.18;67.88;96233.81;6348813;22;20056;-86
2021/04/11 06:28:09;;;;;;;12.25;7.18;;;;;;;6.39;66.80;96215.44;6376516;22;20002;-86
2021/04/11 06:30:41;;;;;;;9.15;5.50;;;;;;;6.43;66.18;96202.59;6348937;22;20333;-87
2021/04/11 06:33:15;;;;;;;9.70;5.20;;;;;;;6.73;66.48;96218.22;6376904;22;19998;-87
2021/04/11 06:35:54;;;;;;;7.38;4.95;;;;;;;7.24;65.16;96252.41;6349186;22;20043;-88
2021/04/11 06:38:37;;;;;;;10.50;4.57;;;;;;;7.49;64.67;96251.56;6349076;22;20055;-86
2021/04/11 06:41:18;;;;;;;9.88;3.72;;;;;;;7.49;62.91;96233.41;6376591;22;20051;-86
2021/04/11 06:44:15;;;;;;;5.85;3.45;;;;;;;7.93;60.67;96252.28;6348758;22;20006;-86
2021/04/11 06:47:08;;;;;;;7.85;3.85;;;;;;;8.15;60.13;96244.16;6355208;22;20009;-86
2021/04/11 06:49:58;;;;;;;6.20;3.38;;;;;;;8.39;60.16;96247.91;6377156;22;20026;-86
2021/04/11 06:52:35;;;;;;;6.68;3.33;;;;;;;8.55;59.84;96243.44;6376327;22;20011;-86
2021/04/11 06:55:14;;;;;;;4.43;2.40;;;;;;;8.75;57.08;96243.81;6348748;22;20351;-86
2021/04/11 06:58:00;;;;;;;2.88;1.90;;;;;;;8.94;54.83;96241.88;6348978;22;20002;-86
2021/04/11 07:00:42;;;;;;;4.20;1.45;;;;;;;9.03;52.48;96233.00;6349292;22;20009;-87
2021/04/11 07:03:28;;;;;;;5.10;1.70;;;;;;;9.33;52.08;96256.53;6375201;22;19998;-85
2021/04/11 07:05:57;;;;;;;5.35;1.95;;;;;;;9.28;52.90;96235.44;6319381;22;20143;-86
2021/04/11 07:08:53;;;;;;;3.97;1.73;;;;;;;9.55;52.16;96248.25;6376208;22;20002;-87
2021/04/11 07:11:49;;;;;;;4.13;2.08;;;;;;;9.58;52.05;96238.44;6348283;22;20032;-87
2021/04/11 07:14:34;;;;;;;5.55;2.22;;;;;;;9.70;50.33;96253.81;6348551;22;20303;-87
2021/04/11 07:17:16;;;;;;;4.05;1.40;;;;;;;9.81;49.24;96254.09;6376421;22;20002;-87
2021/04/11 07:20:09;;;;;;;2.28;1.38;;;;;;;9.95;48.98;96252.69;6348667;22;20093;-87
2021/04/11 07:23:01;;;;;;;5.05;2.03;;;;;;;10.13;47.36;96257.34;6348633;22;20248;-88
2021/04/11 07:26:04;;;;;;;3.20;1.63;;;;;;;10.30;47.28;96271.34;6348675;22;20041;-88
2021/04/11 07:28:52;;;;;;;4.68;1.60;;;;;;;10.37;45.61;96262.88;6348591;22;20006;-87
2021/04/11 07:31:47;;;;;;;4.57;1.73;;;;;;;10.42;44.68;96264.97;6348585;22;20443;-87
2021/04/11 07:34:12;;;;;;;4.13;1.73;;;;;;;10.49;46.60;96272.75;6348583;22;20419;-87
2021/04/11 07:36:40;;;;;;;4.55;1.50;;;;;;;10.61;47.22;96262.94;6348407;22;20006;-85
2021/04/11 07:39:18;;;;;;;4.65;1.35;;;;;;;10.73;45.49;96267.41;6348139;22;20008;-85
2021/04/11 07:41:56;;;;;;;8.35;1.90;;;;;;;10.87;46.28;96272.16;6348069;22;20002;-86
2021/04/11 07:44:42;;;;;;;4.45;1.77;;;;;;;10.50;46.52;96203.69;6348100;22;20002;-84
2021/04/11 07:47:43;;;;;;;3.08;1.75;;;;;;;10.77;45.32;96232.66;6347834;22;20110;-84
2021/04/11 07:50:27;;;;;;;2.83;1.50;;;;;;;11.01;45.32;96273.44;6375680;22;19998;-85
2021/04/11 07:53:36;;;;;;;6.97;2.38;;;;;;;11.03;44.82;96273.72;6374301;22;20010;-84
2021/04/11 07:56:42;;;;;;;4.40;1.83;;;;;;;11.08;45.04;96273.09;6375532;22;20036;-86
2021/04/11 07:59:20;;;;;;;5.15;2.15;;;;;;;10.96;43.78;96239.47;6374322;22;20029;-86
2021/04/11 08:01:52;;;;;;;6.72;2.90;;;;;;;10.95;43.78;96229.84;6348092;22;20002;-86
2021/04/11 08:04:20;;;;;;;3.40;1.95;;;;;;;11.39;44.41;96266.53;6375593;22;19998;-86
2021/04/11 08:07:08;;;;;;;6.30;2.20;;;;;;;11.42;43.35;96274.50;6348071;22;20002;-85
2021/04/11 08:10:01;;;;;;;7.95;3.38;;;;;;;11.51;44.37;96277.16;6347886;22;20030;-86
2021/04/11 08:12:49;;;;;;;7.05;2.53;;;;;;;11.47;44.96;96284.00;6375456;22;20259;-85
2021/04/11 08:15:39;;;;;;;7.15;2.80;;;;;;;11.44;43.32;96284.91;6347888;22;19998;-86
2021/04/11 08:18:20;;;;;;;4.32;1.92;;;;;;;11.46;44.41;96283.25;6348013;22;20006;-85
2021/04/11 08:20:57;;;;;;;4.68;1.73;;;;;;;11.77;45.26;96284.81;6375487;22;20010;-86
2021/04/11 08:23:42;;;;;;;8.90;2.10;;;;;;;11.97;44.57;96281.47;6371333;22;20010;-85
2021/04/11 08:26:32;;;;;;;4.25;2.33;;;;;;;12.09;42.88;96283.19;6347818;22;20270;-85
2021/04/11 08:29:28;;;;;;;7.05;2.70;;;;;;;12.21;42.72;96306.66;6347667;22;20034;-85
2021/04/11 08:32:10;;;;;;;5.88;2.35;;;;;;;12.26;43.00;96302.53;6375161;22;20544;-84
2021/04/11 08:35:04;;;;;;;6.13;2.05;;;;;;;12.36;44.05;96290.31;6375414;22;20363;-85
2021/04/11 08:38:07;;;;;;;4.93;1.98;;;;;;;12.44;44.31;96277.06;6347233;22;20006;-86
2021/04/11 08:40:42;;;;;;;5.00;2.05;;;;;;;12.58;43.63;96279.03;6347265;22;20006;-87
2021/04/11 08:43:14;;;;;;;4.10;1.60;;;;;;;12.31;41.96;96233.81;6375474;22;20055;-86
2021/04/11 08:46:17;;;;;;;4.25;2.05;;;;;;;12.69;45.00;96273.00;6347582;22;20018;-85
2021/04/11 08:49:01;;;;;;;4.72;2.05;;;;;;;12.44;42.38;96266.16;6347600;22;20009;-85
2021/04/11 08:51:33;;;;;;;4.35;2.10;;;;;;;12.59;46.52;96262.19;6347204;22;20266;-85
2021/04/11 08:54:08;;;;;;;7.03;2.30;;;;;;;13.05;45.64;96277.22;6347162;22;20009;-84
2021/04/11 08:56:40;;;;;;;6.68;2.10;;;;;;;13.18;41.86;96266.72;6374745;22;20007;-85
2021/04/11 08:59:15;;;;;;;10.27;1.90;;;;;;;13.40;43.50;96273.69;6347648;22;20009;-85
2021/04/11 09:02:04;;;;;;;5.38;2.08;;;;;;;13.16;41.50;96247.38;6374925;22;20366;-85
2021/04/11 09:04:54;;;;;;;7.07;2.03;;;;;;;13.14;42.29;96270.88;6347162;22;20006;-85
2021/04/11 09:07:32;;;;;;;3.30;1.60;;;;;;;13.18;43.28;96274.91;6347687;22;20291;-85
2021/04/11 09:10:09;;;;;;;8.25;2.00;;;;;;;13.15;43.91;96281.28;6375588;22;19998;-85
2021/04/11 09:13:08;;;;;;;3.40;1.50;;;;;;;12.70;42.32;96247.25;6375178;22;19998;-85
2021/04/11 09:15:42;;;;;;;3.38;1.50;;;;;;;12.81;43.78;96280.84;6347331;22;20006;-85
2021/04/11 09:18:35;;;;;;;8.93;2.08;;;;;;;12.96;47.17;96289.00;6374977;22;20005;-88
2021/04/11 09:21:03;;;;;;;5.47;1.90;;;;;;;12.81;45.62;96297.19;6375294;22;20029;-85
2021/04/11 09:23:53;;;;;;;5.38;1.60;;;;;;;12.36;45.53;96254.94;6347233;22;20081;-86
2021/04/11 09:26:43;;;;;;;7.15;1.85;;;;;;;12.54;46.33;96300.25;6325519;22;20006;-85
2021/04/11 09:29:32;;;;;;;4.32;1.70;;;;;;;12.50;47.83;96294.25;6374786;22;20362;-85
2021/04/11 09:32:19;;;;;;;2.85;1.42;;;;;;;12.43;47.75;96300.09;6347237;22;20006;-85
2021/04/11 09:35:03;;;;;;;4.95;1.50;;;;;;;12.40;48.15;96299.03;6347293;22;20370;-85
2021/04/11 09:37:51;;;;;;;5.18;2.50;;;;;;;12.39;48.91;96294.06;6374661;22;20254;-85
2021/04/11 09:40:31;;;;;;;7.30;3.00;;;;;;;12.26;47.35;96291.66;6347260;22;20013;-86
2021/04/11 09:43:24;;;;;;;8.90;2.72;;;;;;;12.29;49.92;96293.41;6346985;22;20009;-85
2021/04/11 09:46:04;;;;;;;7.07;1.95;;;;;;;12.16;49.15;96287.50;6374127;22;20010;-86
2021/04/11 09:48:53;;;;;;;3.72;1.88;;;;;;;12.22;49.50;96293.78;6346859;22;20094;-86
2021/04/11 09:51:19;;;;;;;4.97;1.80;;;;;;;12.21;49.38;96301.22;6346900;22;20022;-86
2021/04/11 09:54:10;;;;;;;5.57;1.80;;;;;;;11.86;50.23;96263.00;6376912;22;20368;-86
2021/04/11 09:57:34;;;;;;;2.78;1.70;;;;;;;11.94;50.14;96304.22;6349158;22;19998;-86
2021/04/11 10:00:15;;;;;;;6.88;2.05;;;;;;;11.98;50.62;96308.22;6251167;23;20038;-86
2021/04/11 10:02:55;;;;;;;3.90;1.63;;;;;;;12.02;49.86;96299.88;6336361;22;20002;-86
2021/04/11 10:05:20;;;;;;;;;;;;;;;12.23;53.94;96315.09;6377556;22;20002;-87
2021/04/11 10:08:27;;;;;;;5.37;1.50;;;;;;;12.07;49.60;96288.34;6349283;22;19985;-86
2021/04/11 10:11:01;;;;;;;7.28;1.45;;;;;;;12.14;49.08;96301.56;6349283;22;20319;-85
2021/04/11 10:13:33;;;;;;;3.88;1.48;;;;;;;12.17;48.92;96308.81;6349011;22;20006;-86
2021/04/11 10:16:26;;;;;;;3.15;1.70;;;;;;;11.79;48.26;96274.22;6349063;22;20425;-85
2021/04/11 10:18:54;;;;;;;4.07;1.40;;;;;;;12.08;48.89;96306.16;6349141;22;20148;-85
2021/04/11 10:21:41;;;;;;;6.28;2.50;;;;;;;12.19;47.92;96298.19;6376788;22;20285;-85
2021/04/11 10:24:45;;;;;;;4.78;2.10;;;;;;;12.18;48.58;96304.88;6348958;22;20059;-86
2021/04/11 10:27:14;;;;;;;6.60;2.20;;;;;;;12.11;48.57;96309.94;6348970;22;19998;-86
2021/04/11 10:29:44;;;;;;;4.30;1.75;;;;;;;11.96;50.18;96290.88;6376602;22;20017;-85
2021/04/11 10:32:10;;;;;;;6.82;2.05;;;;;;;12.13;50.80;96310.97;6347377;22;20448;-87
2021/04/11 10:34:56;;;;;;;5.25;1.73;;;;;;;11.77;47.99;96266.53;6376381;22;19998;-86
2021/04/11 10:37:24;;;;;;;6.35;1.80;;;;;;;12.08;48.49;96311.63;6348487;22;20006;-85
2021/04/11 10:40:03;;;;;;;9.93;2.28;;;;;;;11.95;48.57;96276.50;6376304;22;20030;-85
2021/04/11 10:42:50;;;;;;;3.97;2.05;;;;;;;12.11;47.18;96324.31;6376401;22;20009;-85
2021/04/11 10:45:57;;;;;;;8.13;2.05;;;;;;;12.05;48.13;96326.94;6348566;22;20614;-86
2021/04/11 10:48:42;;;;;;;9.07;1.60;;;;;;;11.93;47.03;96316.28;6355899;22;20122;-85
2021/04/11 10:51:42;;;;;;;5.80;2.03;;;;;;;12.11;48.16;96332.47;6376577;22;20064;-85
2021/04/11 10:54:26;;;;;;;4.25;2.40;;;;;;;12.08;47.44;96311.63;6348559;22;19998;-85
2021/04/11 10:57:21;;;;;;;4.80;2.08;;;;;;;11.88;48.55;96297.88;6348600;22;20006;-86
2021/04/11 10:59:56;;;;;;;6.82;2.10;;;;;;;12.15;48.46;96313.97;6348599;22;20301;-86
2021/04/11 11:02:30;;;;;;;6.25;2.17;;;;;;;12.30;49.16;96333.81;6376131;22;20002;-86
2021/04/11 11:05:20;;;;;;;6.22;2.13;;;;;;;12.02;48.26;96336.00;6348352;22;20009;-84
2021/04/11 11:08:01;;;;;;;3.83;2.03;;;;;;;11.98;49.42;96343.59;6376149;22;20021;-84
2021/04/11 11:10:46;;;;;;;;;;;;;;;11.96;49.09;96339.84;6376559;22;20006;-84
2021/04/11 11:13:28;;;;;;;6.03;2.17;;;;;;;12.09;48.37;96348.53;6377025;22;19902;-84
2021/04/11 11:16:42;;;;;;;6.65;2.25;;;;;;;11.73;49.07;96312.22;6348380;22;20227;-84
2021/04/11 11:19:19;;;;;;;6.15;2.45;;;;;;;11.98;48.81;96353.75;6359660;22;20034;-84
2021/04/11 11:22:01;;;;;;;5.75;2.10;;;;;;;11.86;48.41;96341.16;6347499;22;20036;-84
2021/04/11 11:24:39;;;;;;;5.10;2.20;;;;;;;11.98;49.97;96359.19;6345849;22;20059;-84
2021/04/11 11:27:14;;;;;;;5.50;2.38;;;;;;;12.16;50.48;96361.75;6348243;22;20297;-85
2021/04/11 11:30:04;;;;;;;3.17;2.17;;;;;;;12.12;48.64;96355.75;6348277;22;20010;-85
2021/04/11 11:33:03;;;;;;;4.78;2.00;;;;;;;12.16;48.66;96344.69;6375967;22;20359;-85
2021/04/11 11:35:31;;;;;;;7.68;2.35;;;;;;;12.20;49.25;96331.66;6347738;22;20002;-86
2021/04/11 11:38:19;;;;;;;14.88;2.47;;;;;;;12.51;49.89;96347.50;6347961;22;20079;-84
2021/04/11 11:41:03;;;;;;;9.93;2.40;;;;;;;12.66;49.52;96340.06;6348210;22;20002;-85
2021/04/11 11:43:53;;;;;;;6.70;2.15;;;;;;;12.61;48.69;96351.63;6347937;22;20155;-85
2021/04/11 11:46:48;;;;;;;6.30;2.40;;;;;;;12.56;47.70;96339.41;6348109;22;20577;-84
2021/04/11 11:49:15;;;;;;;9.55;2.58;;;;;;;12.40;49.12;96303.75;6348284;22;20085;-86
2021/04/11 11:52:00;;;;;;;3.28;1.88;;;;;;;12.49;48.36;96341.78;6347716;22;20019;-85
2021/04/11 11:54:32;;;;;;;4.07;2.10;;;;;;;12.27;47.68;96293.88;6347790;22;19998;-85
2021/04/11 11:57:10;;;;;;;3.92;2.03;;;;;;;12.28;48.90;96298.09;6375735;22;19998;-84
2021/04/11 11:59:47;;;;;;;7.25;2.95;;;;;;;12.46;49.69;96335.28;6347980;22;20002;-85
2021/04/11 12:02:38;;;;;;;4.60;2.40;;;;;;;12.52;50.42;96344.31;6348003;22;20081;-84
2021/04/11 12:05:18;;;;;;;8.43;2.25;;;;;;;12.26;50.29;96305.25;6367802;22;20095;-85
2021/04/11 12:07:53;;;;;;;6.90;2.53;;;;;;;12.44;50.03;96340.47;6375693;22;20338;-85
2021/04/11 12:10:23;;;;;;;5.38;2.30;;;;;;;12.47;49.83;96338.78;6347910;22;20090;-85
2021/04/11 12:13:00;;;;;;;5.25;2.30;;;;;;;12.49;50.00;96339.06;6375330;22;19999;-85
2021/04/11 12:15:33;;;;;;;4.18;2.30;;;;;;;12.33;51.19;96292.00;6347508;22;19998;-84
2021/04/11 12:18:17;;;;;;;23.27;3.25;;;;;;;12.38;52.90;96301.50;6348267;22;20002;-88
2021/04/11 12:21:06;;;;;;;5.53;2.25;;;;;;;12.67;50.04;96325.22;6348202;22;20010;-86
2021/04/11 12:23:40;;;;;;;4.30;2.28;;;;;;;12.34;51.74;96268.25;6354732;22;20007;-86